Time;durP1;ratioP1;P1;durP2;ratioP2;P2;SDS_P1;SDS_P2;PMS_P1;PMS_P2;Temp;Humidity;BMP_temperature;BMP_pressure;BME280_temperature;BME280_humidity;BME280_pressure;Samples;Min_cycle;Max_cycle;Signal;HPM_P1;HPM_P2
2022/03/15 00:00:27;;;;;;;22.70;11.82;;;;;;;1.32;68.06;102466.78;4809391;29;20051;-83
2022/03/15 00:02:54;;;;;;;23.73;12.68;;;;;;;1.33;68.10;102473.78;4812244;29;20023;-83
2022/03/15 00:05:20;;;;;;;23.92;12.57;;;;;;;1.30;68.44;102466.88;4824399;29;20034;-83
2022/03/15 00:07:47;;;;;;;29.42;12.75;;;;;;;1.31;68.61;102471.22;4803941;29;20055;-82
2022/03/15 00:10:14;;;;;;;20.38;12.75;;;;;;;1.18;68.58;102454.41;4788314;30;20027;-83
2022/03/15 00:12:41;;;;;;;25.00;12.50;;;;;;;1.15;68.79;102449.28;4807526;29;20034;-82
2022/03/15 00:15:08;;;;;;;22.23;12.50;;;;;;;1.15;68.63;102443.97;4789762;30;20439;-82
2022/03/15 00:17:36;;;;;;;22.23;12.73;;;;;;;1.20;69.18;102449.00;4791810;30;20027;-83
2022/03/15 00:20:09;;;;;;;24.42;12.95;;;;;;;1.22;69.57;102463.00;4774251;30;20035;-83
2022/03/15 00:22:36;;;;;;;25.30;12.57;;;;;;;1.03;70.07;102442.13;4810879;29;20041;-82
2022/03/15 00:25:07;;;;;;;21.38;12.55;;;;;;;1.17;69.83;102463.31;4789115;30;20034;-83
2022/03/15 00:27:33;;;;;;;22.25;12.85;;;;;;;1.20;69.44;102459.63;4788414;30;20035;-81
2022/03/15 00:29:59;;;;;;;25.20;12.02;;;;;;;1.16;69.63;102456.31;4799283;29;20031;-82
2022/03/15 00:32:25;;;;;;;23.02;12.50;;;;;;;1.12;69.71;102449.47;4791893;29;20032;-82
2022/03/15 00:34:51;;;;;;;22.55;12.07;;;;;;;1.17;69.81;102453.53;4822441;29;20057;-82
2022/03/15 00:37:17;;;;;;;21.65;12.15;;;;;;;1.18;70.06;102462.34;4822252;29;20046;-83
2022/03/15 00:39:43;;;;;;;24.00;11.93;;;;;;;1.03;70.42;102453.56;4807320;29;20046;-83
2022/03/15 00:42:09;;;;;;;25.88;12.82;;;;;;;0.86;70.63;102428.13;4823161;29;20031;-82
2022/03/15 00:44:34;;;;;;;23.25;12.93;;;;;;;0.92;71.05;102448.06;4805316;29;20103;-82
2022/03/15 00:47:00;;;;;;;27.35;13.35;;;;;;;0.84;70.85;102434.47;4805847;29;20063;-83
2022/03/15 00:49:26;;;;;;;20.50;12.15;;;;;;;0.82;71.33;102433.69;4802414;30;20047;-82
2022/03/15 00:51:51;;;;;;;26.85;12.75;;;;;;;0.89;71.47;102433.25;4804442;30;20045;-83
2022/03/15 00:54:17;;;;;;;22.85;12.73;;;;;;;0.91;71.45;102436.63;4820647;29;20015;-83
2022/03/15 00:56:43;;;;;;;27.02;13.55;;;;;;;0.93;71.75;102428.59;4827836;29;20035;-83
2022/03/15 00:59:09;;;;;;;23.25;13.07;;;;;;;0.88;71.88;102431.53;4822822;29;20047;-82
2022/03/15 01:01:35;;;;;;;26.55;13.32;;;;;;;0.86;71.98;102438.75;4794937;30;20038;-83
2022/03/15 01:04:01;;;;;;;23.95;12.50;;;;;;;0.86;72.51;102452.00;4791201;29;20059;-83
2022/03/15 01:06:26;;;;;;;20.70;12.20;;;;;;;0.56;72.37;102416.78;4820105;29;20110;-83
2022/03/15 01:08:52;;;;;;;22.27;12.32;;;;;;;0.54;72.59;102424.81;4790544;29;20061;-83
2022/03/15 01:11:17;;;;;;;28.67;13.48;;;;;;;0.52;73.13;102423.22;4805567;29;20052;-83
2022/03/15 01:13:43;;;;;;;24.42;13.07;;;;;;;0.52;73.16;102425.84;4822921;29;20022;-83
2022/03/15 01:16:08;;;;;;;23.15;12.82;;;;;;;0.55;73.56;102444.22;4779180;30;20031;-82
2022/03/15 01:18:34;;;;;;;19.92;12.15;;;;;;;0.48;73.69;102449.03;4779368;29;20035;-83
2022/03/15 01:20:59;;;;;;;22.10;12.68;;;;;;;0.44;74.29;102445.72;4793538;30;20103;-83
2022/03/15 01:23:25;;;;;;;27.70;13.57;;;;;;;0.23;74.25;102423.16;4826536;29;20069;-83
2022/03/15 01:25:50;;;;;;;21.65;12.35;;;;;;;0.38;74.43;102453.19;4782766;29;20031;-82
2022/03/15 01:28:16;;;;;;;27.00;13.48;;;;;;;0.32;74.62;102451.75;4827991;29;20043;-83
2022/03/15 01:30:41;;;;;;;27.88;12.80;;;;;;;0.27;74.98;102463.56;4812243;29;20118;-82
2022/03/15 01:33:07;;;;;;;25.50;12.52;;;;;;;0.14;75.26;102451.06;4810626;29;20026;-83
2022/03/15 01:35:32;;;;;;;23.60;13.13;;;;;;;0.14;75.84;102460.81;4827703;29;20059;-83
2022/03/15 01:37:58;;;;;;;23.50;12.63;;;;;;;0.04;75.57;102449.91;4826986;29;20034;-81
2022/03/15 01:40:23;;;;;;;21.02;12.80;;;;;;;-0.17;75.99;102408.81;4811556;29;20106;-83
2022/03/15 01:42:49;;;;;;;23.17;11.70;;;;;;;0.11;75.32;102434.50;4811073;29;20039;-83
2022/03/15 01:45:15;;;;;;;28.90;13.23;;;;;;;0.29;75.69;102449.28;4826239;29;20461;-82
2022/03/15 01:47:42;;;;;;;21.00;13.25;;;;;;;0.39;75.40;102445.13;4790599;30;20045;-82
2022/03/15 01:50:08;;;;;;;23.38;11.95;;;;;;;0.38;75.54;102426.69;4808620;29;20051;-82
2022/03/15 01:52:34;;;;;;;23.85;12.23;;;;;;;0.47;75.88;102424.34;4790250;30;20077;-82
2022/03/15 01:54:59;;;;;;;21.20;12.18;;;;;;;0.63;75.51;102448.09;4775526;30;20042;-82
2022/03/15 01:57:25;;;;;;;20.08;12.32;;;;;;;0.60;75.75;102428.91;4806868;30;20031;-83
2022/03/15 01:59:50;;;;;;;23.90;12.27;;;;;;;0.70;75.53;102428.22;4806756;29;20039;-81
2022/03/15 02:02:16;;;;;;;18.73;11.85;;;;;;;0.63;75.95;102421.63;4804792;29;20058;-82
2022/03/15 02:04:41;;;;;;;20.60;12.27;;;;;;;0.76;75.71;102436.72;4814922;29;20050;-82
2022/03/15 02:07:09;;;;;;;21.25;12.90;;;;;;;0.66;75.67;102417.91;4797859;29;20041;-81
2022/03/15 02:09:35;;;;;;;21.35;12.43;;;;;;;0.45;75.86;102383.00;4825704;29;20039;-82
2022/03/15 02:12:01;;;;;;;19.00;12.20;;;;;;;0.66;76.40;102418.78;4824467;29;20347;-82
2022/03/15 02:14:26;;;;;;;21.67;12.65;;;;;;;0.63;76.18;102416.31;4824392;29;20073;-82
2022/03/15 02:16:53;;;;;;;18.05;11.45;;;;;;;0.69;76.11;102420.38;4814582;29;20374;-82
2022/03/15 02:19:19;;;;;;;18.52;11.48;;;;;;;0.83;75.99;102425.69;4803297;29;20046;-83
2022/03/15 02:21:44;;;;;;;20.70;11.57;;;;;;;0.62;76.10;102398.69;4809300;29;20035;-82
2022/03/15 02:24:11;;;;;;;21.13;12.45;;;;;;;0.73;76.58;102416.59;4792083;29;20102;-82
2022/03/15 02:26:36;;;;;;;21.83;12.20;;;;;;;0.79;76.16;102441.84;4791912;29;20122;-82
2022/03/15 02:29:02;;;;;;;19.02;12.05;;;;;;;0.77;76.88;102444.59;4789901;29;20085;-81
2022/03/15 02:31:27;;;;;;;26.63;12.20;;;;;;;0.81;76.69;102440.81;4790874;29;20355;-82
2022/03/15 02:33:53;;;;;;;20.40;11.05;;;;;;;0.83;76.63;102438.94;4820041;29;20095;-82
2022/03/15 02:36:18;;;;;;;21.05;11.80;;;;;;;0.61;76.68;102404.97;4821717;29;20083;-82
2022/03/15 02:38:45;;;;;;;23.35;12.13;;;;;;;0.86;76.72;102437.84;4804902;29;20027;-82
2022/03/15 02:41:11;;;;;;;22.80;11.90;;;;;;;0.74;76.92;102417.44;4822596;29;20045;-82
2022/03/15 02:43:38;;;;;;;19.65;12.07;;;;;;;0.74;76.96;102426.25;4808552;29;20043;-83
2022/03/15 02:46:03;;;;;;;19.15;12.13;;;;;;;0.87;77.35;102447.53;4788807;30;20110;-82
2022/03/15 02:48:29;;;;;;;19.63;11.00;;;;;;;0.85;76.88;102446.75;4786385;29;20039;-82
2022/03/15 02:50:57;;;;;;;19.67;11.57;;;;;;;0.85;77.12;102452.06;4788089;30;20103;-81
2022/03/15 02:53:22;;;;;;;20.48;11.75;;;;;;;0.84;77.06;102461.81;4774389;30;20073;-82
2022/03/15 02:55:48;;;;;;;16.92;10.82;;;;;;;0.71;77.34;102444.97;4805008;29;20043;-82
2022/03/15 02:58:14;;;;;;;22.05;11.40;;;;;;;0.83;77.66;102460.13;4791533;29;20043;-83
2022/03/15 03:00:39;;;;;;;19.77;11.43;;;;;;;0.68;77.79;102440.72;4806047;29;20026;-83
2022/03/15 03:03:05;;;;;;;21.92;11.68;;;;;;;0.70;77.73;102464.47;4792266;30;20031;-82
2022/03/15 03:05:30;;;;;;;18.98;11.93;;;;;;;0.61;78.22;102467.69;4805897;30;20044;-82
2022/03/15 03:07:55;;;;;;;17.25;11.25;;;;;;;0.52;78.83;102460.28;4796825;29;20493;-83
2022/03/15 03:10:21;;;;;;;17.40;11.05;;;;;;;0.45;78.84;102479.19;4824180;29;20043;-83
2022/03/15 03:12:48;;;;;;;19.30;11.30;;;;;;;0.29;78.88;102462.50;4791330;29;20405;-83
2022/03/15 03:15:15;;;;;;;23.17;12.05;;;;;;;0.12;79.01;102452.09;4826213;29;20047;-82
2022/03/15 03:17:41;;;;;;;22.42;11.90;;;;;;;0.15;79.45;102473.94;4815390;29;20057;-83
2022/03/15 03:20:12;;;;;;;19.88;11.48;;;;;;;0.07;79.42;102467.41;4806966;29;20031;-83
2022/03/15 03:22:38;;;;;;;21.88;11.68;;;;;;;-0.01;79.28;102471.31;4804947;29;20031;-82
2022/03/15 03:25:05;;;;;;;18.65;10.88;;;;;;;-0.07;79.78;102468.19;4804157;29;20042;-82
2022/03/15 03:27:31;;;;;;;18.45;11.40;;;;;;;-0.02;80.04;102469.63;4803081;30;20027;-82
2022/03/15 03:29:58;;;;;;;21.33;11.73;;;;;;;0.01;79.82;102468.59;4806095;29;20039;-82
2022/03/15 03:32:27;;;;;;;21.92;11.30;;;;;;;-0.01;80.16;102468.69;4787117;30;20055;-83
2022/03/15 03:34:56;;;;;;;20.63;12.05;;;;;;;0.04;80.21;102467.59;4789518;30;20028;-82
2022/03/15 03:37:22;;;;;;;19.48;10.65;;;;;;;0.04;80.19;102468.44;4803671;29;20054;-83
2022/03/15 03:39:48;;;;;;;21.00;10.93;;;;;;;-0.05;80.34;102461.03;4804447;29;20042;-82
2022/03/15 03:42:14;;;;;;;18.50;11.32;;;;;;;-0.06;80.79;102470.75;4786699;30;20043;-82
2022/03/15 03:44:42;;;;;;;20.17;11.45;;;;;;;-0.15;80.71;102481.00;4799951;29;20088;-82
2022/03/15 03:47:08;;;;;;;20.58;11.60;;;;;;;-0.26;80.94;102473.69;4821774;29;20103;-82
2022/03/15 03:49:34;;;;;;;18.83;11.90;;;;;;;-0.32;80.92;102468.75;4819431;29;20036;-83
2022/03/15 03:51:59;;;;;;;17.80;10.80;;;;;;;-0.34;81.27;102479.41;4775188;29;20046;-82
2022/03/15 03:54:25;;;;;;;20.05;11.18;;;;;;;-0.40;81.14;102470.97;4820606;29;20042;-82
2022/03/15 03:56:51;;;;;;;19.98;11.13;;;;;;;-0.58;81.46;102452.56;4806155;29;20347;-83
2022/03/15 03:59:17;;;;;;;17.30;11.23;;;;;;;-0.46;81.96;102472.19;4773732;30;20031;-82
2022/03/15 04:01:43;;;;;;;21.42;11.20;;;;;;;-0.44;81.59;102472.09;4775082;30;20037;-83
2022/03/15 04:04:10;;;;;;;20.92;11.82;;;;;;;-0.45;81.61;102468.59;4789756;30;20104;-82
2022/03/15 04:06:36;;;;;;;17.08;11.00;;;;;;;-0.50;81.74;102468.88;4790005;30;20088;-84
2022/03/15 04:09:04;;;;;;;17.33;10.50;;;;;;;-0.52;82.13;102452.22;4806735;29;20059;-81
2022/03/15 04:11:31;;;;;;;18.83;11.57;;;;;;;-0.62;82.08;102429.91;4802268;30;20065;-84
2022/03/15 04:14:00;;;;;;;19.42;10.93;;;;;;;-0.53;81.85;102444.38;4798956;29;20031;-83
2022/03/15 04:16:27;;;;;;;18.83;11.68;;;;;;;-0.50;82.55;102455.66;4810669;29;20027;-83
2022/03/15 04:18:52;;;;;;;18.40;11.82;;;;;;;-0.40;82.28;102465.69;4795246;29;20501;-83
2022/03/15 04:21:18;;;;;;;17.95;10.98;;;;;;;-0.39;82.09;102448.91;4793934;29;20034;-83
2022/03/15 04:23:45;;;;;;;21.88;11.23;;;;;;;-0.26;82.05;102463.13;4811587;29;20015;-82
2022/03/15 04:26:10;;;;;;;21.25;11.05;;;;;;;-0.24;81.75;102448.84;4813442;29;20031;-83
2022/03/15 04:28:36;;;;;;;22.95;11.57;;;;;;;-0.25;82.02;102427.78;4811689;29;20022;-83
2022/03/15 04:31:02;;;;;;;19.08;11.25;;;;;;;-0.20;81.85;102438.09;4829867;29;20023;-84
2022/03/15 04:33:27;;;;;;;23.33;11.68;;;;;;;-0.02;82.11;102456.41;4812231;29;20039;-84
2022/03/15 04:35:53;;;;;;;22.13;11.80;;;;;;;0.06;82.62;102452.44;4803740;29;20107;-84
2022/03/15 04:38:18;;;;;;;21.40;11.30;;;;;;;0.10;82.18;102456.59;4809999;29;20039;-84
2022/03/15 04:40:44;;;;;;;20.45;11.40;;;;;;;0.03;82.13;102447.31;4823053;29;20046;-84
2022/03/15 04:43:09;;;;;;;19.48;11.52;;;;;;;0.11;82.37;102453.03;4809374;29;20073;-82
2022/03/15 04:45:34;;;;;;;21.13;11.38;;;;;;;0.17;82.12;102457.97;4779067;29;20046;-83
2022/03/15 04:48:00;;;;;;;22.25;12.02;;;;;;;0.17;82.30;102455.31;4811625;29;20046;-84
2022/03/15 04:50:25;;;;;;;19.67;12.48;;;;;;;0.25;82.29;102468.09;4809573;29;20068;-84
2022/03/15 04:52:50;;;;;;;20.17;10.93;;;;;;;0.27;82.66;102461.78;4779255;29;20057;-83
2022/03/15 04:55:16;;;;;;;23.30;11.82;;;;;;;0.28;82.85;102457.31;4805343;29;20484;-83
2022/03/15 04:57:42;;;;;;;18.55;11.43;;;;;;;0.32;82.65;102457.03;4795591;29;20072;-83
2022/03/15 05:00:09;;;;;;;22.40;11.60;;;;;;;0.32;83.62;102469.44;4814037;29;20027;-82
2022/03/15 05:02:36;;;;;;;20.65;11.23;;;;;;;0.20;83.05;102433.97;4825477;29;20038;-83
2022/03/15 05:05:08;;;;;;;18.25;11.50;;;;;;;0.35;83.69;102456.84;4824712;29;20054;-84
2022/03/15 05:07:34;;;;;;;23.30;12.32;;;;;;;0.37;83.43;102462.09;4825144;29;20090;-81
2022/03/15 05:12:44;;;;;;;20.70;11.20;;;;;;;-0.05;82.98;102386.94;4826320;29;20042;-83
2022/03/15 05:15:10;;;;;;;20.48;11.25;;;;;;;0.39;83.04;102446.94;4824673;29;20314;-84
2022/03/15 05:17:36;;;;;;;19.80;10.68;;;;;;;0.38;84.96;102454.03;4810621;29;20039;-82
2022/03/15 05:20:05;;;;;;;20.42;11.88;;;;;;;0.33;85.27;102440.22;4794078;29;20080;-84
2022/03/15 05:22:31;;;;;;;19.50;11.48;;;;;;;0.41;84.21;102443.25;4803384;29;20023;-81
2022/03/15 05:24:57;;;;;;;20.10;10.80;;;;;;;0.51;84.04;102443.56;4799955;30;20108;-82
2022/03/15 05:27:22;;;;;;;23.80;11.52;;;;;;;0.53;83.88;102440.78;4803451;30;20470;-83
2022/03/15 05:29:47;;;;;;;18.20;11.02;;;;;;;0.46;84.01;102433.25;4788499;29;20054;-83
2022/03/15 05:32:13;;;;;;;27.35;12.05;;;;;;;0.35;83.93;102411.00;4824998;29;20039;-82
2022/03/15 05:34:38;;;;;;;20.25;11.73;;;;;;;0.11;83.82;102379.78;4829019;29;20034;-82
2022/03/15 05:37:04;;;;;;;16.70;10.82;;;;;;;0.51;83.94;102429.47;4805656;29;20034;-82
2022/03/15 05:39:29;;;;;;;17.38;10.63;;;;;;;0.38;83.80;102401.06;4797864;29;20037;-81
2022/03/15 05:41:54;;;;;;;18.98;11.27;;;;;;;0.41;84.00;102392.09;4809657;29;20385;-82
2022/03/15 05:44:21;;;;;;;22.98;11.07;;;;;;;0.58;83.86;102413.09;4808323;29;20099;-82
2022/03/15 05:46:46;;;;;;;22.70;10.90;;;;;;;0.37;83.46;102383.50;4773363;29;20034;-82
2022/03/15 05:49:12;;;;;;;18.63;11.43;;;;;;;0.58;83.69;102413.09;4786448;29;20332;-82
2022/03/15 05:51:38;;;;;;;20.08;11.95;;;;;;;0.75;83.90;102433.22;4791895;29;20051;-81
2022/03/15 05:54:04;;;;;;;21.25;11.48;;;;;;;0.65;84.07;102408.25;4797974;29;20423;-84
2022/03/15 05:56:40;;;;;;;18.55;11.15;;;;;;;0.73;84.47;102419.25;4862964;24;20082;-82
2022/03/15 05:59:06;;;;;;;18.83;10.30;;;;;;;0.81;83.46;102434.66;4817798;29;20109;-82
2022/03/15 06:01:31;;;;;;;17.08;10.50;;;;;;;0.75;83.33;102427.94;4790562;29;20027;-82
2022/03/15 06:03:57;;;;;;;18.33;11.10;;;;;;;-0.38;83.89;102255.72;4899308;24;20023;-78
2022/03/15 06:06:23;;;;;;;19.75;11.30;;;;;;;-0.79;84.30;102189.50;4810041;29;20027;-84
2022/03/15 06:08:50;;;;;;;18.63;10.65;;;;;;;0.83;83.53;102425.69;4825254;29;20043;-81
2022/03/15 06:11:16;;;;;;;21.30;11.63;;;;;;;0.75;85.65;102424.44;4839026;29;20053;-84
2022/03/15 06:13:41;;;;;;;18.38;11.38;;;;;;;0.59;86.47;102388.28;4815282;29;20038;-84
2022/03/15 06:16:07;;;;;;;20.42;11.60;;;;;;;0.74;87.63;102414.81;4795690;29;20055;-83
2022/03/15 06:18:32;;;;;;;20.35;11.85;;;;;;;0.90;85.50;102419.03;4801712;29;20495;-83
2022/03/15 06:20:58;;;;;;;18.58;11.20;;;;;;;1.00;84.61;102407.88;4827130;29;20042;-82
2022/03/15 06:23:24;;;;;;;21.05;11.55;;;;;;;1.18;84.08;102417.28;4804076;29;20019;-81
2022/03/15 06:25:49;;;;;;;24.10;11.50;;;;;;;1.20;84.30;102418.03;4788659;29;20370;-82
2022/03/15 06:28:15;;;;;;;19.40;11.35;;;;;;;1.10;83.83;102388.63;4814019;29;20041;-82
2022/03/15 06:30:41;;;;;;;21.77;11.60;;;;;;;1.32;83.37;102403.97;4812429;29;20043;-83
2022/03/15 06:33:06;;;;;;;21.55;11.48;;;;;;;1.46;83.02;102426.97;4830746;29;20061;-83
2022/03/15 06:35:32;;;;;;;24.30;11.95;;;;;;;1.41;82.89;102413.13;4812957;29;20069;-83
2022/03/15 06:37:57;;;;;;;22.13;12.68;;;;;;;1.52;82.57;102425.69;4827450;29;20051;-81
2022/03/15 06:40:25;;;;;;;27.63;12.18;;;;;;;1.46;82.33;102416.34;4809395;29;20030;-82
2022/03/15 06:42:52;;;;;;;23.52;11.73;;;;;;;1.51;82.23;102416.03;4812060;29;20049;-83
2022/03/15 06:45:18;;;;;;;24.95;12.60;;;;;;;1.45;82.47;102404.03;4812488;29;20117;-82
2022/03/15 06:47:43;;;;;;;21.42;11.43;;;;;;;1.49;82.66;102409.97;4811421;29;20045;-83
2022/03/15 06:50:10;;;;;;;25.23;12.95;;;;;;;1.49;82.57;102405.53;4830636;29;20026;-83
2022/03/15 06:52:37;;;;;;;20.73;12.07;;;;;;;1.60;82.41;102429.56;4827573;29;20035;-83
2022/03/15 06:55:04;;;;;;;30.48;13.32;;;;;;;1.62;82.35;102418.81;4799077;29;20039;-81
2022/03/15 06:57:30;;;;;;;27.80;12.27;;;;;;;1.63;82.67;102417.91;4811684;29;20027;-80
2022/03/15 06:59:56;;;;;;;26.48;12.27;;;;;;;1.63;82.45;102410.78;4820080;29;20022;-81
2022/03/15 07:02:22;;;;;;;27.85;12.82;;;;;;;1.72;82.48;102411.97;4804369;29;20019;-81
2022/03/15 07:04:47;;;;;;;25.92;12.95;;;;;;;1.84;82.70;102421.75;4820855;29;20062;-83
2022/03/15 07:07:14;;;;;;;24.90;13.02;;;;;;;1.84;83.46;102415.59;4828017;29;20038;-83
2022/03/15 07:09:40;;;;;;;29.50;13.20;;;;;;;1.95;83.00;102420.19;4826415;29;20027;-84
2022/03/15 07:12:06;;;;;;;32.80;13.95;;;;;;;1.82;84.27;102402.47;4827381;29;20089;-82
2022/03/15 07:14:31;;;;;;;32.72;14.48;;;;;;;1.71;84.37;102374.94;4811686;29;20068;-84
2022/03/15 07:33:47;;;;;;;26.88;13.18;;;;;;;2.83;80.74;102387.47;4827359;29;20071;-83
2022/03/15 07:36:12;;;;;;;28.35;14.85;;;;;;;2.68;82.18;102371.75;4811614;29;20058;-84
2022/03/15 07:38:38;;;;;;;42.65;14.18;;;;;;;3.00;81.10;102391.56;4811670;29;20046;-83
2022/03/15 07:41:03;;;;;;;51.97;14.90;;;;;;;3.28;80.18;102389.56;4796709;29;20022;-83
2022/03/15 07:43:28;;;;;;;31.05;14.23;;;;;;;3.23;81.85;102381.06;4811988;29;20030;-83
2022/03/15 07:45:54;;;;;;;31.20;14.48;;;;;;;3.41;81.04;102379.72;4811726;29;20049;-83
2022/03/15 07:48:20;;;;;;;35.25;14.75;;;;;;;3.48;80.86;102372.97;4812136;29;20039;-83
2022/03/15 07:50:46;;;;;;;43.05;15.13;;;;;;;3.60;80.67;102373.84;4805110;29;20035;-83
2022/03/15 07:53:12;;;;;;;37.80;14.80;;;;;;;3.66;79.60;102362.75;4814439;29;20031;-84
2022/03/15 07:55:38;;;;;;;37.28;14.38;;;;;;;3.80;79.61;102372.34;4813059;29;20117;-83
2022/03/15 07:58:04;;;;;;;34.17;14.63;;;;;;;3.87;79.45;102370.91;4826281;29;20035;-83
2022/03/15 08:00:30;;;;;;;30.92;14.38;;;;;;;3.87;79.64;102367.41;4828267;29;20023;-84
2022/03/15 08:02:56;;;;;;;32.53;14.38;;;;;;;4.06;78.99;102364.19;4812729;29;20046;-84
2022/03/15 08:05:22;;;;;;;32.33;14.68;;;;;;;4.09;79.40;102361.28;4798926;29;20042;-84
2022/03/15 08:07:48;;;;;;;32.72;14.30;;;;;;;4.09;79.33;102359.47;4814492;29;20042;-83
2022/03/15 08:10:13;;;;;;;33.88;15.45;;;;;;;4.20;79.78;102362.13;4819787;29;20014;-83
2022/03/15 08:12:40;;;;;;;34.28;15.20;;;;;;;4.46;78.88;102372.59;4813380;29;20054;-84
2022/03/15 08:15:07;;;;;;;38.63;14.95;;;;;;;4.66;77.33;102374.53;4813682;29;20035;-83
2022/03/15 08:17:36;;;;;;;39.22;15.18;;;;;;;4.92;77.54;102377.78;4833533;29;20095;-84
2022/03/15 08:20:02;;;;;;;33.60;15.98;;;;;;;5.09;76.25;102376.41;4813818;29;20011;-84
2022/03/15 08:22:30;;;;;;;27.45;15.30;;;;;;;5.18;76.27;102377.50;4830400;29;20049;-84
2022/03/15 08:24:56;;;;;;;36.00;15.70;;;;;;;5.16;75.67;102361.59;4798034;29;20047;-84
2022/03/15 08:27:21;;;;;;;44.45;15.77;;;;;;;5.32;75.27;102368.34;4809853;29;20046;-84
2022/03/15 08:29:47;;;;;;;27.80;16.13;;;;;;;5.44;75.09;102378.03;4824625;29;20023;-84
2022/03/15 08:32:13;;;;;;;34.00;15.85;;;;;;;5.49;74.13;102366.94;4829762;29;20042;-85
2022/03/15 08:34:38;;;;;;;41.78;16.95;;;;;;;5.79;73.93;102380.41;4819795;29;20038;-84
2022/03/15 08:37:05;;;;;;;25.42;15.68;;;;;;;6.02;72.57;102375.81;4831967;29;20030;-84
2022/03/15 08:39:30;;;;;;;37.92;16.92;;;;;;;6.22;71.97;102382.13;4837525;29;20206;-84
2022/03/15 08:44:31;;;;;;;36.17;16.13;;;;;;;4.54;71.56;102082.28;5093542;24;20063;-84
2022/03/15 08:46:57;;;;;;;33.25;16.90;;;;;;;6.29;70.94;102379.75;4796036;30;20090;-84
2022/03/15 08:49:22;;;;;;;30.83;16.13;;;;;;;6.46;70.70;102394.38;4818782;29;20007;-83
2022/03/15 08:51:49;;;;;;;32.78;17.02;;;;;;;6.44;70.07;102364.25;4829354;29;20038;-84
2022/03/15 08:54:14;;;;;;;30.15;16.67;;;;;;;6.75;69.33;102386.44;4828383;29;20114;-85
2022/03/15 08:56:40;;;;;;;29.55;17.05;;;;;;;6.91;69.31;102391.31;4813363;29;20023;-84
2022/03/15 08:59:06;;;;;;;28.17;17.15;;;;;;;7.11;68.70;102392.19;4795155;30;20039;-84
2022/03/15 09:01:32;;;;;;;24.30;16.48;;;;;;;7.17;68.37;102384.47;4810611;29;20039;-84
2022/03/15 09:03:57;;;;;;;28.23;16.55;;;;;;;7.14;68.11;102383.91;4810923;29;20042;-83
2022/03/15 09:06:22;;;;;;;22.60;15.77;;;;;;;7.14;67.95;102394.59;4790631;29;20039;-84
2022/03/15 09:21:44;;;;;;;25.55;15.38;;;;;;;5.41;67.51;102146.03;5772092;23;21085;-83
2022/03/15 09:52:38;;;;;;;25.15;15.98;;;;;;;6.00;69.17;102224.66;5186325;24;20059;-85
2022/03/15 09:55:04;;;;;;;25.20;16.77;;;;;;;7.15;69.76;102407.00;4832187;29;20074;-84
2022/03/15 09:57:31;;;;;;;25.23;16.30;;;;;;;7.23;69.72;102408.00;4816412;29;20015;-84
2022/03/15 10:00:00;;;;;;;24.13;16.60;;;;;;;7.20;69.62;102404.78;4832855;29;20496;-84
2022/03/15 10:58:09;;;;;;;28.52;18.58;;;;;;;6.83;72.47;102226.09;5735188;24;20994;-82
2022/03/15 11:16:07;;;;;;;33.40;19.85;;;;;;;5.95;73.87;102118.16;5699574;24;20195;-83
2022/03/15 11:47:06;;;;;;;30.55;20.75;;;;;;;7.84;74.44;102326.53;5169295;24;20062;-84
2022/03/15 11:57:38;;;;;;;29.27;19.95;;;;;;;6.89;74.56;102184.53;5593000;24;20066;-84
2022/03/15 12:00:04;;;;;;;28.95;19.60;;;;;;;6.70;75.07;102156.81;4812573;29;20036;-85
2022/03/15 12:02:38;;;;;;;29.33;19.38;;;;;;;7.92;75.19;102336.56;4795545;30;20019;-84
2022/03/15 12:05:20;;;;;;;28.88;19.08;;;;;;;8.04;74.80;102337.22;4812827;29;20014;-84
2022/03/15 12:07:47;;;;;;;32.75;20.55;;;;;;;7.94;75.29;102322.00;4812108;29;20027;-83
2022/03/15 12:10:27;;;;;;;29.52;19.70;;;;;;;8.17;74.64;102329.69;4809633;29;20075;-83
2022/03/15 12:20:44;;;;;;;33.28;20.55;;;;;;;8.39;72.85;102293.66;5285166;24;20066;-84
2022/03/15 12:46:30;;;;;;;33.33;21.63;;;;;;;7.95;68.87;102157.53;4854049;24;20089;-85
2022/03/15 13:22:34;;;;;;;37.95;22.08;;;;;;;8.87;68.91;102317.56;5323630;24;20043;-84
2022/03/15 15:18:53;;;;;;;47.10;32.38;;;;;;;6.08;81.98;102076.00;4929090;24;20055;-84
2022/03/15 15:49:46;;;;;;;48.50;32.47;;;;;;;6.20;88.39;102156.06;4757779;28;20068;-84
2022/03/15 15:52:12;;;;;;;50.13;32.97;;;;;;;6.28;88.18;102172.25;4769619;30;20056;-84
2022/03/15 15:54:37;;;;;;;49.05;34.20;;;;;;;7.19;88.54;102322.78;4822722;24;20711;-83
2022/03/15 15:57:05;;;;;;;49.75;33.20;;;;;;;7.16;90.17;102318.53;4826184;29;20039;-83
2022/03/15 15:59:31;;;;;;;51.33;33.45;;;;;;;6.05;90.59;102164.44;5020639;24;20062;-84
2022/03/15 16:01:58;;;;;;;45.15;33.30;;;;;;;5.96;90.82;102145.72;4830031;29;20027;-84
2022/03/15 16:04:24;;;;;;;52.88;33.70;;;;;;;5.60;91.40;102098.06;4910189;24;20111;-85
2022/03/15 16:06:50;;;;;;;51.42;33.20;;;;;;;6.72;91.98;102267.22;4803045;29;20050;-85
2022/03/15 16:09:21;;;;;;;51.85;33.55;;;;;;;6.99;92.12;102309.38;4790358;29;20031;-84
2022/03/15 16:50:33;;;;;;;55.35;38.85;;;;;;;6.47;100.00;102330.06;5517279;24;20062;-84
2022/03/15 16:59:07;;;;;;;60.30;39.38;;;;;;;6.44;100.00;102321.47;5444778;24;20043;-84
2022/03/15 17:00:54;;;;;;;58.03;37.78;;;;;;;6.48;100.00;102341.59;4815173;29;20052;-84
2022/03/15 17:05:40;;;;;;;68.43;42.28;;;;;;;6.49;100.00;102341.47;4788564;29;20462;-81
2022/03/15 17:06:05;;;;;;;;;;;;;;;6.40;100.00;102339.59;4812230;29;20561;-82
2022/03/15 17:08:35;;;;;;;53.10;35.53;;;;;;;6.37;100.00;102339.88;4793801;29;19917;-83
2022/03/15 17:11:00;;;;;;;54.97;36.33;;;;;;;6.34;100.00;102332.09;4779966;29;20042;-83
2022/03/15 17:13:27;;;;;;;51.22;36.35;;;;;;;6.30;100.00;102325.34;4793652;29;20031;-83
2022/03/15 17:15:54;;;;;;;56.55;36.67;;;;;;;6.14;100.00;102308.94;4801751;29;20056;-82
2022/03/15 17:18:20;;;;;;;58.13;36.78;;;;;;;6.12;100.00;102319.75;4808818;29;20063;-83
2022/03/15 17:20:45;;;;;;;52.25;36.25;;;;;;;6.06;100.00;102313.13;4800525;29;20035;-82
2022/03/15 17:23:11;;;;;;;56.15;36.08;;;;;;;6.06;100.00;102333.63;4784117;29;20039;-82
2022/03/15 17:25:36;;;;;;;57.10;37.65;;;;;;;5.99;100.00;102332.47;4819113;29;20091;-83
2022/03/15 17:28:06;;;;;;;58.97;38.28;;;;;;;5.92;100.00;102331.28;4792114;29;20115;-81
2022/03/15 17:30:31;;;;;;;60.20;38.65;;;;;;;5.83;100.00;102325.75;4791589;29;20031;-82
2022/03/15 17:32:57;;;;;;;58.13;38.35;;;;;;;5.73;100.00;102314.16;4802914;29;20067;-83
2022/03/15 17:35:23;;;;;;;59.33;39.40;;;;;;;5.53;100.00;102299.84;4795915;29;20103;-83
2022/03/15 17:38:03;;;;;;;60.63;40.40;;;;;;;5.63;100.00;102327.44;4785570;29;20121;-82
2022/03/15 17:40:32;;;;;;;60.45;41.15;;;;;;;5.60;100.00;102337.53;4788773;29;20435;-81
2022/03/15 17:43:00;;;;;;;63.78;40.95;;;;;;;5.54;100.00;102322.03;4797964;29;20034;-84
2022/03/15 17:45:26;;;;;;;62.70;41.42;;;;;;;5.53;100.00;102331.88;4902986;24;20050;-81
2022/03/15 17:47:54;;;;;;;62.95;42.00;;;;;;;5.47;100.00;102337.72;4873877;24;20058;-83
2022/03/15 17:50:19;;;;;;;69.80;44.78;;;;;;;5.40;100.00;102333.88;4798545;29;20023;-82
2022/03/15 17:52:50;;;;;;;70.80;45.47;;;;;;;5.36;100.00;102340.41;4809062;29;20043;-84
2022/03/15 17:55:17;;;;;;;65.50;43.63;;;;;;;5.17;100.00;102309.94;4769723;29;20184;-81
2022/03/15 17:57:52;;;;;;;67.70;44.70;;;;;;;5.18;100.00;102322.28;4802073;29;20469;-82
2022/03/15 18:00:23;;;;;;;73.40;45.33;;;;;;;5.14;100.00;102328.03;4788588;29;20031;-82
2022/03/15 18:02:51;;;;;;;72.90;46.22;;;;;;;5.10;100.00;102337.22;4798905;29;20039;-82
2022/03/15 18:05:17;;;;;;;73.45;46.33;;;;;;;5.12;100.00;102360.16;4862559;24;20111;-83
2022/03/15 18:07:43;;;;;;;71.10;46.65;;;;;;;3.41;100.00;102092.34;4810187;29;20047;-82
2022/03/15 18:12:55;;;;;;;73.05;45.97;;;;;;;4.67;100.00;102309.56;4824671;29;20067;-81
2022/03/15 18:15:25;;;;;;;72.68;46.55;;;;;;;4.97;100.00;102364.09;4804945;29;20042;-81
2022/03/15 18:17:50;;;;;;;71.72;45.90;;;;;;;4.91;100.00;102357.41;4815428;29;20054;-81